createdAt,value
2018-11-20T00:01:45.815Z,19.60
2018-11-20T00:04:32.172Z,22.60
2018-11-20T00:07:25.467Z,25.97
2018-11-20T00:10:23.737Z,20.67
2018-11-20T00:13:08.110Z,21.83
2018-11-20T00:15:53.508Z,20.27
2018-11-20T00:18:49.704Z,20.70
2018-11-20T00:21:30.594Z,21.23
2018-11-20T00:24:15.746Z,19.87
2018-11-20T00:27:13.866Z,21.93
2018-11-20T00:30:00.013Z,22.07
2018-11-20T00:32:49.857Z,19.53
2018-11-20T00:35:39.799Z,23.70
2018-11-20T00:38:45.117Z,22.40
2018-11-20T00:41:44.044Z,21.10
2018-11-20T00:44:49.372Z,22.50
2018-11-20T00:47:35.814Z,21.10
2018-11-20T00:50:16.041Z,22.13
2018-11-20T00:53:01.872Z,20.63
2018-11-20T00:56:13.399Z,21.87
2018-11-20T00:58:58.952Z,23.37
2018-11-20T01:01:42.257Z,21.97
2018-11-20T01:04:41.504Z,19.93
2018-11-20T01:07:28.474Z,20.37
2018-11-20T01:10:12.630Z,19.97
2018-11-20T01:13:05.859Z,25.17
2018-11-20T01:15:52.976Z,21.17
2018-11-20T01:18:48.928Z,20.90
2018-11-20T01:21:47.080Z,16.43
2018-11-20T01:24:32.817Z,21.60
2018-11-20T01:27:10.888Z,23.00
2018-11-20T01:29:58.069Z,20.90
2018-11-20T01:32:39.717Z,20.80
2018-11-20T01:35:34.441Z,22.97
2018-11-20T01:38:20.107Z,17.70
2018-11-20T01:41:09.523Z,18.80
2018-11-20T01:43:55.207Z,19.87
2018-11-20T01:46:47.886Z,20.57
2018-11-20T01:49:41.516Z,23.23
2018-11-20T01:52:27.004Z,18.37
2018-11-20T01:55:29.303Z,22.80
2018-11-20T01:58:13.102Z,22.93
2018-11-20T02:01:12.159Z,23.77
2018-11-20T02:04:00.475Z,18.70
2018-11-20T02:06:46.180Z,20.00
2018-11-20T02:09:31.934Z,24.03
2018-11-20T02:12:17.723Z,21.57
2018-11-20T02:15:03.762Z,24.57
2018-11-20T02:17:56.313Z,23.93
2018-11-20T02:20:37.543Z,25.03
2018-11-20T02:23:19.591Z,20.03
2018-11-20T02:26:09.851Z,22.70
2018-11-20T02:28:48.123Z,19.53
2018-11-20T02:31:33.736Z,20.77
2018-11-20T02:34:22.279Z,19.70
2018-11-20T02:37:00.220Z,23.37
2018-11-20T02:39:46.280Z,24.60
2018-11-20T02:42:25.496Z,18.43
2018-11-20T02:45:01.061Z,23.33
2018-11-20T02:47:46.816Z,23.60
2018-11-20T02:50:33.946Z,20.77
2018-11-20T02:53:36.343Z,24.10
2018-11-20T02:56:29.481Z,25.23
2018-11-20T02:59:15.328Z,23.23
2018-11-20T03:01:52.272Z,22.53
2018-11-20T03:04:49.109Z,20.37
2018-11-20T03:07:36.258Z,22.67
2018-11-20T03:10:22.449Z,23.90
2018-11-20T03:13:08.061Z,24.10
2018-11-20T03:15:51.655Z,26.57
2018-11-20T03:18:41.736Z,24.07
2018-11-20T03:21:19.249Z,25.00
2018-11-20T03:24:05.122Z,22.10
2018-11-20T03:26:51.011Z,26.80
2018-11-20T03:30:13.444Z,27.30
2018-11-20T03:32:59.131Z,24.70
2018-11-20T03:35:46.223Z,26.40
2018-11-20T03:38:27.969Z,24.50
2018-11-20T03:41:03.200Z,26.03
2018-11-20T03:43:50.386Z,23.40
2018-11-20T03:46:41.355Z,22.70
2018-11-20T03:49:26.847Z,20.97
2018-11-20T03:52:02.012Z,24.03
2018-11-20T03:54:51.970Z,21.20
2018-11-20T03:57:28.092Z,24.03
2018-11-20T04:00:04.201Z,24.73
2018-11-20T04:02:49.856Z,25.30
2018-11-20T04:05:30.634Z,20.93
2018-11-20T04:08:16.436Z,24.80
2018-11-20T04:11:02.002Z,21.90
2018-11-20T04:13:44.921Z,23.20
2018-11-20T04:16:25.110Z,22.00
2018-11-20T04:19:21.160Z,24.53
2018-11-20T04:22:00.680Z,22.13
2018-11-20T04:24:47.839Z,23.90
2018-11-20T04:27:46.616Z,22.47
2018-11-20T04:31:09.561Z,23.67
2018-11-20T04:34:16.585Z,24.10
2018-11-20T04:36:54.352Z,20.37
2018-11-20T04:39:40.183Z,23.67
2018-11-20T04:42:39.672Z,21.87
2018-11-20T04:45:25.353Z,24.33
2018-11-20T04:48:03.134Z,22.97
2018-11-20T04:50:46.321Z,19.57
2018-11-20T04:53:33.506Z,25.27
2018-11-20T04:56:19.117Z,22.90
2018-11-20T04:59:13.209Z,22.57
2018-11-20T05:02:06.134Z,21.40
2018-11-20T05:05:05.167Z,21.70
2018-11-20T05:08:07.525Z,22.13
2018-11-20T05:11:03.691Z,18.40
2018-11-20T05:14:03.711Z,17.07
2018-11-20T05:16:49.248Z,20.80
2018-11-20T05:19:43.965Z,23.70
2018-11-20T05:22:31.090Z,22.00
2018-11-20T05:25:27.360Z,20.30
2018-11-20T05:28:05.109Z,22.90
2018-11-20T05:30:47.406Z,16.77
2018-11-20T05:33:49.511Z,16.90
2018-11-20T05:36:39.477Z,19.67
2018-11-20T05:39:27.921Z,21.70
2018-11-20T05:42:24.287Z,21.70
2018-11-20T05:45:11.421Z,15.90
2018-11-20T05:48:10.815Z,21.93
2018-11-20T05:50:57.975Z,20.40
2018-11-20T05:53:34.932Z,21.77
2018-11-20T05:56:31.020Z,21.83
2018-11-20T05:59:23.956Z,17.70
2018-11-20T06:02:13.870Z,21.67
2018-11-20T06:04:55.785Z,20.30
2018-11-20T06:07:41.516Z,22.27
2018-11-20T06:10:34.709Z,19.07
2018-11-20T06:13:23.236Z,20.17
2018-11-20T06:16:09.000Z,22.10
2018-11-20T06:18:55.001Z,22.90
2018-11-20T06:21:41.002Z,17.90
2018-11-20T06:24:22.490Z,17.80
2018-11-20T06:27:09.631Z,20.50
2018-11-20T06:30:11.898Z,22.80
2018-11-20T06:32:59.074Z,23.13
2018-11-20T06:35:44.862Z,19.83
2018-11-20T06:38:30.921Z,18.10
2018-11-20T06:41:16.819Z,19.97
2018-11-20T06:44:00.114Z,22.83
2018-11-20T06:46:46.098Z,22.07
2018-11-20T06:49:20.572Z,22.57
2018-11-20T06:52:06.442Z,23.80
2018-11-20T06:54:52.108Z,20.03
2018-11-20T06:57:45.372Z,21.40
2018-11-20T07:00:31.169Z,21.20
2018-11-20T07:03:30.034Z,19.63
2018-11-20T07:06:15.969Z,20.27
2018-11-20T07:09:01.915Z,17.77
2018-11-20T07:11:54.815Z,18.13
2018-11-20T07:14:47.819Z,18.03
2018-11-20T07:17:46.907Z,15.70
2018-11-20T07:20:34.027Z,19.67
2018-11-20T07:23:11.690Z,19.80
2018-11-20T07:26:04.403Z,19.93
2018-11-20T07:28:55.838Z,19.27
2018-11-20T07:32:01.182Z,16.83
2018-11-20T07:34:57.207Z,18.90
2018-11-20T07:37:42.975Z,17.37
2018-11-20T07:40:33.066Z,17.10
2018-11-20T07:43:20.247Z,16.80
2018-11-20T07:46:12.887Z,17.10
2018-11-20T07:48:54.523Z,17.00
2018-11-20T07:51:45.288Z,16.47
2018-11-20T07:54:37.294Z,17.30
2018-11-20T07:57:23.143Z,17.60
2018-11-20T08:00:01.195Z,17.17
2018-11-20T08:02:59.075Z,16.17
2018-11-20T08:06:05.699Z,16.17
2018-11-20T08:08:52.891Z,15.23
2018-11-20T08:11:57.992Z,16.23
2018-11-20T08:15:00.436Z,15.70
2018-11-20T08:17:35.441Z,16.03
2018-11-20T08:20:21.316Z,16.63
2018-11-20T08:23:14.806Z,17.30
2018-11-20T08:26:00.840Z,15.53
2018-11-20T08:28:46.265Z,17.90
2018-11-20T08:31:51.409Z,17.67
2018-11-20T08:34:37.304Z,17.07
2018-11-20T08:37:28.197Z,18.07
2018-11-20T08:40:21.212Z,19.60
2018-11-20T08:43:08.310Z,19.60
2018-11-20T08:45:54.197Z,17.63
2018-11-20T08:48:50.151Z,20.00
2018-11-20T08:51:32.507Z,18.97
2018-11-20T08:54:22.623Z,18.57
2018-11-20T08:57:12.570Z,20.07
2018-11-20T09:00:05.260Z,20.10
2018-11-20T09:02:46.137Z,19.47
2018-11-20T09:05:35.889Z,15.90
2018-11-20T09:08:21.889Z,16.23
2018-11-20T09:11:03.532Z,16.97
2018-11-20T09:13:50.656Z,16.10
2018-11-20T09:16:55.969Z,15.60
2018-11-20T09:19:42.005Z,16.57
2018-11-20T09:22:31.405Z,15.33
2018-11-20T09:25:18.653Z,15.00
2018-11-20T09:28:06.196Z,17.40
2018-11-20T09:30:53.253Z,17.33
2018-11-20T09:33:49.131Z,20.93
2018-11-20T09:36:34.034Z,15.87
2018-11-20T09:39:24.162Z,21.60
2018-11-20T09:42:23.326Z,16.57
2018-11-20T09:45:29.376Z,16.07
2018-11-20T09:48:12.333Z,17.30
2018-11-20T09:51:05.111Z,17.07
2018-11-20T09:53:52.314Z,17.23
2018-11-20T09:56:45.459Z,18.60
2018-11-20T09:59:38.720Z,16.30
2018-11-20T10:02:25.843Z,15.47
2018-11-20T10:05:13.032Z,16.80
2018-11-20T10:08:12.043Z,17.93
2018-11-20T10:10:51.545Z,15.60
2018-11-20T10:13:34.948Z,19.77
2018-11-20T10:16:21.222Z,18.60
2018-11-20T10:19:19.994Z,20.00
2018-11-20T10:22:05.891Z,15.60
2018-11-20T10:25:11.460Z,18.83
2018-11-20T10:28:01.658Z,19.00
2018-11-20T10:30:52.579Z,15.40
2018-11-20T10:33:42.428Z,16.30
2018-11-20T10:36:28.485Z,16.57
2018-11-20T10:39:15.654Z,18.20
2018-11-20T10:41:55.053Z,18.60
2018-11-20T10:44:42.211Z,17.30
2018-11-20T10:47:27.769Z,15.83
2018-11-20T10:50:14.869Z,16.27
2018-11-20T10:52:58.710Z,15.47
2018-11-20T10:55:45.834Z,16.00
2018-11-20T10:58:38.509Z,17.03
2018-11-20T11:01:24.332Z,17.37
2018-11-20T11:04:23.186Z,16.33
2018-11-20T11:06:55.610Z,12.47
2018-11-20T11:09:40.587Z,14.77
2018-11-20T11:12:43.146Z,12.23
2018-11-20T11:15:42.811Z,13.00
2018-11-20T11:18:28.375Z,12.23
2018-11-20T11:21:17.352Z,10.13
2018-11-20T11:23:55.132Z,9.87
2018-11-20T11:26:48.104Z,12.20
2018-11-20T11:29:44.317Z,13.37
2018-11-20T11:32:31.432Z,10.93
2018-11-20T11:35:27.782Z,11.70
2018-11-20T11:38:13.788Z,12.90
2018-11-20T11:40:53.441Z,11.63
2018-11-20T11:43:49.563Z,12.27
2018-11-20T11:46:36.701Z,13.60
2018-11-20T11:49:22.833Z,11.17
2018-11-20T11:52:08.455Z,11.53
2018-11-20T11:55:04.845Z,11.97
2018-11-20T11:58:01.565Z,13.40
2018-11-20T12:00:51.655Z,11.37
2018-11-20T12:03:37.127Z,12.90
2018-11-20T12:06:23.082Z,13.30
2018-11-20T12:09:08.515Z,13.00
2018-11-20T12:12:07.870Z,12.87
2018-11-20T12:14:51.579Z,12.47
2018-11-20T12:17:38.037Z,13.20
2018-11-20T12:20:24.260Z,15.00
2018-11-20T12:23:13.974Z,13.57
2018-11-20T12:26:13.238Z,13.87
2018-11-20T12:29:09.356Z,13.43
2018-11-20T12:31:59.407Z,12.50
2018-11-20T12:34:56.725Z,13.43
2018-11-20T12:37:43.632Z,11.80
2018-11-20T12:40:29.485Z,13.67
2018-11-20T12:43:18.232Z,11.87
2018-11-20T12:46:02.676Z,11.73
2018-11-20T12:48:56.352Z,14.30
2018-11-20T12:51:42.616Z,8.60
2018-11-20T12:54:42.023Z,13.13
2018-11-20T12:57:47.251Z,12.97
2018-11-20T13:00:24.851Z,13.97
2018-11-20T13:03:10.642Z,12.30
2018-11-20T13:05:52.354Z,12.63
2018-11-20T13:08:40.706Z,13.47
2018-11-20T13:11:35.801Z,14.57
2018-11-20T13:14:25.537Z,13.00
2018-11-20T13:17:27.794Z,13.27
2018-11-20T13:20:10.615Z,14.07
2018-11-20T13:22:55.683Z,13.57
2018-11-20T13:25:42.203Z,12.90
2018-11-20T13:28:27.756Z,13.57
2018-11-20T13:31:29.838Z,12.27
2018-11-20T13:34:20.767Z,11.87
2018-11-20T13:37:11.718Z,12.87
2018-11-20T13:39:55.814Z,11.10
2018-11-20T13:42:46.516Z,12.60
2018-11-20T13:45:51.984Z,13.93
2018-11-20T13:48:45.324Z,11.23
2018-11-20T13:51:23.609Z,12.10
2018-11-20T13:54:05.888Z,12.03
2018-11-20T13:56:53.100Z,12.47
2018-11-20T13:59:39.204Z,12.63
2018-11-20T14:02:29.019Z,12.50
2018-11-20T14:05:31.125Z,13.20
2018-11-20T14:08:25.691Z,12.60
2018-11-20T14:11:10.940Z,11.43
2018-11-20T14:14:05.698Z,11.03
2018-11-20T14:17:09.376Z,12.47
2018-11-20T14:19:55.365Z,10.87
2018-11-20T14:22:44.685Z,11.40
2018-11-20T14:25:28.673Z,13.40
2018-11-20T14:28:14.826Z,12.73
2018-11-20T14:30:58.310Z,12.47
2018-11-20T14:33:57.515Z,11.10
2018-11-20T14:36:53.723Z,12.70
2018-11-20T14:39:46.809Z,12.30
2018-11-20T14:42:23.701Z,10.57
2018-11-20T14:45:09.361Z,11.20
2018-11-20T14:47:55.406Z,11.50
2018-11-20T14:50:42.563Z,11.57
2018-11-20T14:53:21.751Z,13.27
2018-11-20T14:56:12.160Z,11.87
2018-11-20T14:58:58.095Z,13.47
2018-11-20T15:01:47.961Z,13.07
2018-11-20T15:04:37.942Z,14.17
2018-11-20T15:07:19.988Z,12.27
2018-11-20T15:10:06.100Z,13.63
2018-11-20T15:13:05.027Z,14.40
2018-11-20T15:15:57.109Z,14.43
2018-11-20T15:18:44.146Z,12.07
2018-11-20T15:21:38.897Z,12.10
2018-11-20T15:24:24.672Z,15.00
2018-11-20T15:27:11.800Z,15.00
2018-11-20T15:30:08.204Z,11.47
2018-11-20T15:32:58.374Z,13.50
2018-11-20T15:35:55.312Z,14.23
2018-11-20T15:38:54.256Z,14.40
2018-11-20T15:41:46.821Z,13.67
2018-11-20T15:44:31.370Z,15.50
2018-11-20T15:47:21.598Z,14.37
2018-11-20T15:50:07.715Z,14.40
2018-11-20T15:52:54.860Z,15.00
2018-11-20T15:55:34.279Z,17.80
2018-11-20T15:58:21.433Z,16.20
2018-11-20T16:01:07.408Z,14.70
2018-11-20T16:04:03.666Z,15.47
2018-11-20T16:06:48.302Z,15.23
2018-11-20T16:09:34.460Z,17.77
2018-11-20T16:12:21.671Z,18.27
2018-11-20T16:15:23.979Z,15.27
2018-11-20T16:18:23.374Z,17.80
2018-11-20T16:21:09.127Z,16.70
2018-11-20T16:24:02.427Z,16.20
2018-11-20T16:26:44.864Z,17.47
2018-11-20T16:29:37.893Z,17.73
2018-11-20T16:32:31.052Z,17.50
2018-11-20T16:35:16.799Z,17.87
2018-11-20T16:38:09.536Z,18.33
2018-11-20T16:41:02.713Z,18.00
2018-11-20T16:44:07.985Z,15.53
2018-11-20T16:46:53.814Z,19.10
2018-11-20T16:49:41.040Z,18.90
2018-11-20T16:52:26.760Z,19.00
2018-11-20T16:55:13.899Z,17.00
2018-11-20T16:57:50.205Z,18.40
2018-11-20T17:00:43.307Z,19.37
2018-11-20T17:03:36.305Z,20.70
2018-11-20T17:06:14.833Z,18.53
2018-11-20T17:09:02.001Z,19.77
2018-11-20T17:11:48.005Z,16.50
2018-11-20T17:14:31.177Z,17.50
2018-11-20T17:17:27.346Z,19.87
2018-11-20T17:20:17.498Z,18.43
2018-11-20T17:23:19.471Z,20.53
2018-11-20T17:26:05.379Z,16.93
2018-11-20T17:28:51.465Z,18.60
2018-11-20T17:31:29.045Z,20.27
2018-11-20T17:34:19.241Z,18.83
2018-11-20T17:37:04.860Z,16.77
2018-11-20T17:39:50.809Z,17.00
2018-11-20T17:42:53.252Z,18.00
2018-11-20T17:45:55.427Z,16.93
2018-11-20T17:48:42.555Z,17.47
2018-11-20T17:51:28.420Z,17.60
2018-11-20T17:54:14.188Z,17.10
2018-11-20T17:57:06.938Z,16.70
2018-11-20T18:00:09.224Z,18.07
2018-11-20T18:03:28.908Z,17.60
2018-11-20T18:06:13.978Z,17.37
2018-11-20T18:09:06.271Z,20.27
2018-11-20T18:11:58.869Z,17.37
2018-11-20T18:14:36.681Z,16.57
2018-11-20T18:17:21.954Z,16.77
2018-11-20T18:20:20.427Z,17.17
2018-11-20T18:23:15.442Z,18.10
2018-11-20T18:25:53.961Z,16.90
2018-11-20T18:28:49.189Z,17.30
2018-11-20T18:31:25.139Z,17.87
2018-11-20T18:34:23.932Z,19.20
2018-11-20T18:37:13.512Z,18.70
2018-11-20T18:40:12.279Z,17.87
2018-11-20T18:43:01.608Z,20.50
2018-11-20T18:45:51.062Z,17.57
2018-11-20T18:48:36.534Z,18.37
2018-11-20T18:51:22.923Z,20.57
2018-11-20T18:53:59.801Z,17.70
2018-11-20T18:56:43.349Z,18.77
2018-11-20T18:59:22.717Z,19.57
2018-11-20T19:02:06.983Z,17.13
2018-11-20T19:04:52.298Z,22.30
2018-11-20T19:07:38.626Z,20.97
2018-11-20T19:10:32.532Z,23.17
2018-11-20T19:13:25.162Z,20.57
2018-11-20T19:16:30.360Z,19.20
2018-11-20T19:19:22.934Z,19.97
2018-11-20T19:22:08.330Z,16.40
2018-11-20T19:24:54.431Z,20.33
2018-11-20T19:27:44.085Z,18.20
2018-11-20T19:30:39.812Z,19.10
2018-11-20T19:33:25.035Z,18.87
2018-11-20T19:36:10.106Z,17.07
2018-11-20T19:39:08.809Z,18.13
2018-11-20T19:41:55.364Z,19.90
2018-11-20T19:44:45.259Z,20.23
2018-11-20T19:47:40.878Z,18.90
2018-11-20T19:50:28.757Z,19.67
2018-11-20T19:53:13.843Z,18.33
2018-11-20T19:55:58.906Z,18.93
2018-11-20T19:58:51.209Z,18.77
2018-11-20T20:01:43.972Z,16.93
2018-11-20T20:04:39.185Z,17.00
2018-11-20T20:07:19.021Z,18.30
2018-11-20T20:10:13.301Z,17.87
2018-11-20T20:12:46.385Z,19.03
2018-11-20T20:15:41.809Z,18.47
2018-11-20T20:18:27.206Z,19.47
2018-11-20T20:21:16.269Z,17.00
2018-11-20T20:24:15.214Z,18.53
2018-11-20T20:27:00.422Z,17.47
2018-11-20T20:29:51.789Z,17.20
2018-11-20T20:32:36.720Z,18.67
2018-11-20T20:35:26.575Z,16.80
2018-11-20T20:38:11.975Z,17.10
2018-11-20T20:41:04.096Z,17.63
2018-11-20T20:43:59.755Z,18.40
2018-11-20T20:46:52.326Z,16.70
2018-11-20T20:49:31.331Z,18.70
2018-11-20T20:52:05.540Z,17.20
2018-11-20T20:54:57.806Z,17.10
2018-11-20T20:57:56.455Z,16.67
2018-11-20T21:00:50.246Z,17.50
2018-11-20T21:03:31.235Z,14.60
2018-11-20T21:06:35.921Z,15.80
2018-11-20T21:09:21.278Z,16.70
2018-11-20T21:11:56.369Z,15.90
2018-11-20T21:14:41.892Z,16.27
2018-11-20T21:17:28.292Z,15.60
2018-11-20T21:20:17.447Z,17.23
2018-11-20T21:23:02.821Z,15.77
2018-11-20T21:26:01.302Z,15.93
2018-11-20T21:29:08.336Z,16.33
2018-11-20T21:31:54.319Z,15.10
2018-11-20T21:34:55.141Z,14.27
2018-11-20T21:37:35.265Z,14.93
2018-11-20T21:40:24.354Z,16.97
2018-11-20T21:43:19.790Z,16.90
2018-11-20T21:46:24.231Z,15.33
2018-11-20T21:49:11.489Z,16.37
2018-11-20T21:52:00.923Z,15.60
2018-11-20T21:54:56.274Z,14.73
2018-11-20T21:57:45.743Z,14.87
2018-11-20T22:00:44.753Z,15.43
2018-11-20T22:03:30.259Z,14.90
2018-11-20T22:06:19.247Z,14.77
2018-11-20T22:09:06.909Z,13.80
2018-11-20T22:12:05.324Z,13.30
2018-11-20T22:15:06.779Z,13.20
2018-11-20T22:17:52.010Z,15.30
2018-11-20T22:20:47.154Z,14.23
2018-11-20T22:23:50.045Z,14.30
2018-11-20T22:26:35.328Z,14.83
2018-11-20T22:29:20.351Z,14.47
2018-11-20T22:32:05.350Z,13.50
2018-11-20T22:35:00.770Z,13.50
2018-11-20T22:37:50.286Z,13.43
2018-11-20T22:40:35.746Z,14.00
2018-11-20T22:43:40.273Z,13.47
2018-11-20T22:46:45.042Z,13.27
2018-11-20T22:49:23.923Z,12.30
2018-11-20T22:52:10.359Z,13.03
2018-11-20T22:54:55.836Z,13.23
2018-11-20T22:57:41.080Z,12.70
2018-11-20T23:00:28.827Z,12.07
2018-11-20T23:03:13.946Z,12.80
2018-11-20T23:06:08.572Z,12.77
2018-11-20T23:08:35.552Z,12.47
2018-11-20T23:11:02.323Z,12.53
2018-11-20T23:13:29.218Z,13.47
2018-11-20T23:15:56.036Z,13.90
2018-11-20T23:18:22.817Z,11.73
2018-11-20T23:20:49.670Z,12.73
2018-11-20T23:23:16.489Z,12.37
2018-11-20T23:25:43.308Z,12.43
2018-11-20T23:28:10.089Z,12.53
2018-11-20T23:30:36.896Z,12.50
2018-11-20T23:33:03.647Z,12.73
2018-11-20T23:35:30.418Z,11.90
2018-11-20T23:37:57.187Z,11.93
2018-11-20T23:40:24.004Z,12.27
2018-11-20T23:42:50.816Z,12.23
2018-11-20T23:45:17.604Z,11.40
2018-11-20T23:47:44.357Z,12.93
2018-11-20T23:50:12.500Z,12.03
2018-11-20T23:52:39.338Z,10.50
2018-11-20T23:55:08.014Z,11.27
2018-11-20T23:57:34.801Z,11.80
